sensor_id;sensor_type;location;lat;lon;timestamp;P1;durP1;ratioP1;P2;durP2;ratioP2
10811;SDS011;5458;51.496;7.334;2023-04-06T00:01:30;16.52;;;11.80;;
10811;SDS011;5458;51.496;7.334;2023-04-06T00:03:56;15.00;;;11.90;;
10811;SDS011;5458;51.496;7.334;2023-04-06T00:06:22;16.65;;;12.65;;
10811;SDS011;5458;51.496;7.334;2023-04-06T00:08:47;16.08;;;12.13;;
10811;SDS011;5458;51.496;7.334;2023-04-06T00:11:13;13.88;;;10.57;;
10811;SDS011;5458;51.496;7.334;2023-04-06T00:13:38;14.32;;;11.18;;
10811;SDS011;5458;51.496;7.334;2023-04-06T00:16:04;14.07;;;11.40;;
10811;SDS011;5458;51.496;7.334;2023-04-06T00:18:31;13.23;;;11.07;;
10811;SDS011;5458;51.496;7.334;2023-04-06T00:20:57;13.02;;;11.38;;
10811;SDS011;5458;51.496;7.334;2023-04-06T00:23:22;15.00;;;11.35;;
10811;SDS011;5458;51.496;7.334;2023-04-06T00:25:48;15.68;;;11.50;;
10811;SDS011;5458;51.496;7.334;2023-04-06T00:28:14;14.60;;;11.30;;
10811;SDS011;5458;51.496;7.334;2023-04-06T00:30:40;14.48;;;10.90;;
10811;SDS011;5458;51.496;7.334;2023-04-06T00:33:06;14.10;;;11.48;;
10811;SDS011;5458;51.496;7.334;2023-04-06T00:35:31;16.77;;;12.07;;
10811;SDS011;5458;51.496;7.334;2023-04-06T00:37:57;11.75;;;10.45;;
10811;SDS011;5458;51.496;7.334;2023-04-06T00:40:23;14.27;;;10.45;;
10811;SDS011;5458;51.496;7.334;2023-04-06T00:42:49;14.18;;;10.30;;
10811;SDS011;5458;51.496;7.334;2023-04-06T00:45:15;11.43;;;10.32;;
10811;SDS011;5458;51.496;7.334;2023-04-06T00:47:40;14.95;;;11.45;;
10811;SDS011;5458;51.496;7.334;2023-04-06T00:50:06;14.65;;;10.65;;
10811;SDS011;5458;51.496;7.334;2023-04-06T00:52:33;12.73;;;10.65;;
10811;SDS011;5458;51.496;7.334;2023-04-06T00:54:59;11.90;;;10.25;;
10811;SDS011;5458;51.496;7.334;2023-04-06T00:57:25;12.35;;;10.55;;
10811;SDS011;5458;51.496;7.334;2023-04-06T00:59:51;12.80;;;10.70;;
10811;SDS011;5458;51.496;7.334;2023-04-06T01:02:17;15.95;;;11.48;;
10811;SDS011;5458;51.496;7.334;2023-04-06T01:04:43;16.45;;;10.02;;
10811;SDS011;5458;51.496;7.334;2023-04-06T01:07:09;15.07;;;11.02;;
10811;SDS011;5458;51.496;7.334;2023-04-06T01:09:35;16.08;;;11.27;;
10811;SDS011;5458;51.496;7.334;2023-04-06T01:12:01;14.07;;;10.85;;
10811;SDS011;5458;51.496;7.334;2023-04-06T01:14:27;13.23;;;10.27;;
10811;SDS011;5458;51.496;7.334;2023-04-06T01:16:53;11.88;;;10.13;;
10811;SDS011;5458;51.496;7.334;2023-04-06T01:19:19;13.07;;;9.98;;
10811;SDS011;5458;51.496;7.334;2023-04-06T01:21:45;12.85;;;10.52;;
10811;SDS011;5458;51.496;7.334;2023-04-06T01:24:11;14.63;;;10.45;;
10811;SDS011;5458;51.496;7.334;2023-04-06T01:26:37;13.65;;;10.65;;
10811;SDS011;5458;51.496;7.334;2023-04-06T01:29:03;12.00;;;10.35;;
10811;SDS011;5458;51.496;7.334;2023-04-06T01:31:29;11.90;;;10.57;;
10811;SDS011;5458;51.496;7.334;2023-04-06T01:33:55;12.50;;;10.75;;
10811;SDS011;5458;51.496;7.334;2023-04-06T01:36:21;12.18;;;10.88;;
10811;SDS011;5458;51.496;7.334;2023-04-06T01:38:47;12.00;;;10.38;;
10811;SDS011;5458;51.496;7.334;2023-04-06T01:41:12;11.65;;;10.15;;
10811;SDS011;5458;51.496;7.334;2023-04-06T01:43:38;12.18;;;10.43;;
10811;SDS011;5458;51.496;7.334;2023-04-06T01:46:03;12.23;;;10.95;;
10811;SDS011;5458;51.496;7.334;2023-04-06T01:48:30;13.90;;;11.15;;
10811;SDS011;5458;51.496;7.334;2023-04-06T01:50:56;13.05;;;10.80;;
10811;SDS011;5458;51.496;7.334;2023-04-06T01:53:22;11.80;;;10.57;;
10811;SDS011;5458;51.496;7.334;2023-04-06T01:55:47;16.13;;;11.27;;
10811;SDS011;5458;51.496;7.334;2023-04-06T01:58:13;13.68;;;10.35;;
10811;SDS011;5458;51.496;7.334;2023-04-06T02:00:39;12.88;;;10.82;;
10811;SDS011;5458;51.496;7.334;2023-04-06T02:03:05;11.55;;;10.05;;
10811;SDS011;5458;51.496;7.334;2023-04-06T02:05:31;12.95;;;10.18;;
10811;SDS011;5458;51.496;7.334;2023-04-06T02:08:03;13.90;;;10.43;;
10811;SDS011;5458;51.496;7.334;2023-04-06T02:10:33;14.85;;;10.48;;
10811;SDS011;5458;51.496;7.334;2023-04-06T02:12:59;13.48;;;10.23;;
10811;SDS011;5458;51.496;7.334;2023-04-06T02:15:25;12.80;;;10.38;;
10811;SDS011;5458;51.496;7.334;2023-04-06T02:17:51;15.70;;;11.27;;
10811;SDS011;5458;51.496;7.334;2023-04-06T02:20:17;13.35;;;11.20;;
10811;SDS011;5458;51.496;7.334;2023-04-06T02:22:43;16.08;;;11.15;;
10811;SDS011;5458;51.496;7.334;2023-04-06T02:25:08;11.73;;;9.65;;
10811;SDS011;5458;51.496;7.334;2023-04-06T02:27:34;14.32;;;10.68;;
10811;SDS011;5458;51.496;7.334;2023-04-06T02:30:01;11.70;;;9.55;;
10811;SDS011;5458;51.496;7.334;2023-04-06T02:32:27;12.57;;;10.05;;
10811;SDS011;5458;51.496;7.334;2023-04-06T02:34:52;13.52;;;9.70;;
10811;SDS011;5458;51.496;7.334;2023-04-06T02:37:18;12.38;;;10.38;;
10811;SDS011;5458;51.496;7.334;2023-04-06T02:39:44;11.30;;;9.93;;
10811;SDS011;5458;51.496;7.334;2023-04-06T02:42:10;10.43;;;9.23;;
10811;SDS011;5458;51.496;7.334;2023-04-06T02:44:36;12.32;;;10.07;;
10811;SDS011;5458;51.496;7.334;2023-04-06T02:47:01;11.90;;;9.88;;
10811;SDS011;5458;51.496;7.334;2023-04-06T02:49:27;12.65;;;10.13;;
10811;SDS011;5458;51.496;7.334;2023-04-06T02:51:52;12.88;;;10.70;;
10811;SDS011;5458;51.496;7.334;2023-04-06T02:54:18;16.45;;;12.10;;
10811;SDS011;5458;51.496;7.334;2023-04-06T02:56:44;13.43;;;10.30;;
10811;SDS011;5458;51.496;7.334;2023-04-06T02:59:10;11.18;;;9.98;;
10811;SDS011;5458;51.496;7.334;2023-04-06T03:01:36;12.15;;;10.93;;
10811;SDS011;5458;51.496;7.334;2023-04-06T03:04:02;19.33;;;11.30;;
10811;SDS011;5458;51.496;7.334;2023-04-06T03:06:28;32.42;;;11.60;;
10811;SDS011;5458;51.496;7.334;2023-04-06T03:08:53;18.40;;;10.98;;
10811;SDS011;5458;51.496;7.334;2023-04-06T03:11:19;13.48;;;10.48;;
10811;SDS011;5458;51.496;7.334;2023-04-06T03:13:45;12.80;;;9.95;;
10811;SDS011;5458;51.496;7.334;2023-04-06T03:16:11;12.25;;;10.25;;
10811;SDS011;5458;51.496;7.334;2023-04-06T03:18:37;13.68;;;10.20;;
10811;SDS011;5458;51.496;7.334;2023-04-06T03:21:02;12.57;;;10.60;;
10811;SDS011;5458;51.496;7.334;2023-04-06T03:23:28;13.18;;;10.95;;
10811;SDS011;5458;51.496;7.334;2023-04-06T03:25:54;15.07;;;11.00;;
10811;SDS011;5458;51.496;7.334;2023-04-06T03:28:19;14.40;;;10.38;;
10811;SDS011;5458;51.496;7.334;2023-04-06T03:30:45;13.93;;;10.52;;
10811;SDS011;5458;51.496;7.334;2023-04-06T03:33:11;14.20;;;10.32;;
10811;SDS011;5458;51.496;7.334;2023-04-06T03:35:36;13.25;;;11.15;;
10811;SDS011;5458;51.496;7.334;2023-04-06T03:38:05;14.52;;;10.20;;
10811;SDS011;5458;51.496;7.334;2023-04-06T03:40:30;15.20;;;10.95;;
10811;SDS011;5458;51.496;7.334;2023-04-06T03:42:56;12.05;;;10.35;;
10811;SDS011;5458;51.496;7.334;2023-04-06T03:45:22;11.45;;;10.25;;
10811;SDS011;5458;51.496;7.334;2023-04-06T03:47:48;14.52;;;11.00;;
10811;SDS011;5458;51.496;7.334;2023-04-06T03:50:13;16.13;;;11.15;;
10811;SDS011;5458;51.496;7.334;2023-04-06T03:52:39;16.77;;;11.25;;
10811;SDS011;5458;51.496;7.334;2023-04-06T03:55:05;13.48;;;11.25;;
10811;SDS011;5458;51.496;7.334;2023-04-06T03:57:31;11.80;;;9.93;;
10811;SDS011;5458;51.496;7.334;2023-04-06T03:59:57;13.00;;;10.30;;
10811;SDS011;5458;51.496;7.334;2023-04-06T04:02:23;12.95;;;10.90;;
10811;SDS011;5458;51.496;7.334;2023-04-06T04:04:48;16.80;;;11.05;;
10811;SDS011;5458;51.496;7.334;2023-04-06T04:07:14;12.45;;;9.85;;
10811;SDS011;5458;51.496;7.334;2023-04-06T04:09:40;12.65;;;10.00;;
10811;SDS011;5458;51.496;7.334;2023-04-06T04:12:05;12.27;;;10.55;;
10811;SDS011;5458;51.496;7.334;2023-04-06T04:14:31;13.85;;;10.48;;
10811;SDS011;5458;51.496;7.334;2023-04-06T04:16:57;10.88;;;9.27;;
10811;SDS011;5458;51.496;7.334;2023-04-06T04:19:22;11.63;;;9.98;;
10811;SDS011;5458;51.496;7.334;2023-04-06T04:21:48;10.50;;;9.35;;
10811;SDS011;5458;51.496;7.334;2023-04-06T04:24:13;13.25;;;10.13;;
10811;SDS011;5458;51.496;7.334;2023-04-06T04:26:39;12.57;;;9.43;;
10811;SDS011;5458;51.496;7.334;2023-04-06T04:29:05;12.65;;;9.77;;
10811;SDS011;5458;51.496;7.334;2023-04-06T04:31:31;11.05;;;9.95;;
10811;SDS011;5458;51.496;7.334;2023-04-06T04:33:57;11.90;;;9.57;;
10811;SDS011;5458;51.496;7.334;2023-04-06T04:36:24;13.75;;;10.25;;
10811;SDS011;5458;51.496;7.334;2023-04-06T04:38:50;14.27;;;11.25;;
10811;SDS011;5458;51.496;7.334;2023-04-06T04:41:16;13.45;;;9.02;;
10811;SDS011;5458;51.496;7.334;2023-04-06T04:43:42;13.07;;;10.50;;
10811;SDS011;5458;51.496;7.334;2023-04-06T04:46:07;14.80;;;10.35;;
10811;SDS011;5458;51.496;7.334;2023-04-06T04:48:33;12.45;;;10.15;;
10811;SDS011;5458;51.496;7.334;2023-04-06T04:50:59;10.95;;;9.55;;
10811;SDS011;5458;51.496;7.334;2023-04-06T04:53:25;12.77;;;10.63;;
10811;SDS011;5458;51.496;7.334;2023-04-06T04:55:51;15.82;;;11.40;;
10811;SDS011;5458;51.496;7.334;2023-04-06T04:58:17;14.68;;;11.30;;
10811;SDS011;5458;51.496;7.334;2023-04-06T05:00:44;15.70;;;10.68;;
10811;SDS011;5458;51.496;7.334;2023-04-06T05:03:18;11.68;;;10.48;;
10811;SDS011;5458;51.496;7.334;2023-04-06T05:05:46;13.15;;;10.35;;
10811;SDS011;5458;51.496;7.334;2023-04-06T05:08:12;16.15;;;11.35;;
10811;SDS011;5458;51.496;7.334;2023-04-06T05:10:38;13.70;;;9.63;;
10811;SDS011;5458;51.496;7.334;2023-04-06T05:13:04;10.32;;;9.23;;
10811;SDS011;5458;51.496;7.334;2023-04-06T05:15:30;11.88;;;9.55;;
10811;SDS011;5458;51.496;7.334;2023-04-06T05:17:55;12.15;;;9.45;;
10811;SDS011;5458;51.496;7.334;2023-04-06T05:20:21;13.05;;;9.73;;
10811;SDS011;5458;51.496;7.334;2023-04-06T05:22:47;12.18;;;9.98;;
10811;SDS011;5458;51.496;7.334;2023-04-06T05:25:13;10.68;;;8.93;;
10811;SDS011;5458;51.496;7.334;2023-04-06T05:27:39;13.35;;;10.43;;
10811;SDS011;5458;51.496;7.334;2023-04-06T05:30:05;11.55;;;9.30;;
10811;SDS011;5458;51.496;7.334;2023-04-06T05:32:32;11.88;;;9.32;;
10811;SDS011;5458;51.496;7.334;2023-04-06T05:34:58;10.10;;;8.43;;
10811;SDS011;5458;51.496;7.334;2023-04-06T05:37:23;16.02;;;10.38;;
10811;SDS011;5458;51.496;7.334;2023-04-06T05:39:49;10.02;;;9.02;;
10811;SDS011;5458;51.496;7.334;2023-04-06T05:42:15;13.10;;;9.52;;
10811;SDS011;5458;51.496;7.334;2023-04-06T05:44:41;10.30;;;9.30;;
10811;SDS011;5458;51.496;7.334;2023-04-06T05:47:07;9.73;;;8.73;;
10811;SDS011;5458;51.496;7.334;2023-04-06T05:49:33;9.50;;;8.40;;
10811;SDS011;5458;51.496;7.334;2023-04-06T05:51:59;11.18;;;8.45;;
10811;SDS011;5458;51.496;7.334;2023-04-06T05:54:25;10.30;;;8.63;;
10811;SDS011;5458;51.496;7.334;2023-04-06T05:56:51;9.68;;;8.68;;
10811;SDS011;5458;51.496;7.334;2023-04-06T05:59:16;8.93;;;7.70;;
10811;SDS011;5458;51.496;7.334;2023-04-06T06:01:42;9.65;;;8.32;;
10811;SDS011;5458;51.496;7.334;2023-04-06T06:04:08;10.73;;;8.13;;
10811;SDS011;5458;51.496;7.334;2023-04-06T06:06:33;9.95;;;8.10;;
10811;SDS011;5458;51.496;7.334;2023-04-06T06:08:59;9.50;;;8.55;;
10811;SDS011;5458;51.496;7.334;2023-04-06T06:11:25;9.65;;;7.70;;
10811;SDS011;5458;51.496;7.334;2023-04-06T06:13:52;10.40;;;7.53;;
10811;SDS011;5458;51.496;7.334;2023-04-06T06:16:18;9.23;;;8.02;;
10811;SDS011;5458;51.496;7.334;2023-04-06T06:18:44;8.20;;;7.28;;
10811;SDS011;5458;51.496;7.334;2023-04-06T06:21:10;11.40;;;6.93;;
10811;SDS011;5458;51.496;7.334;2023-04-06T06:23:38;8.57;;;7.75;;
10811;SDS011;5458;51.496;7.334;2023-04-06T06:26:04;10.02;;;7.85;;
10811;SDS011;5458;51.496;7.334;2023-04-06T06:28:30;8.95;;;8.02;;
10811;SDS011;5458;51.496;7.334;2023-04-06T06:30:56;8.05;;;7.25;;
10811;SDS011;5458;51.496;7.334;2023-04-06T06:33:22;8.68;;;7.43;;
10811;SDS011;5458;51.496;7.334;2023-04-06T06:38:46;7.82;;;6.75;;
10811;SDS011;5458;51.496;7.334;2023-04-06T06:41:12;7.32;;;6.63;;
10811;SDS011;5458;51.496;7.334;2023-04-06T06:43:37;13.40;;;7.72;;
10811;SDS011;5458;51.496;7.334;2023-04-06T06:46:03;7.63;;;6.82;;
10811;SDS011;5458;51.496;7.334;2023-04-06T06:48:29;10.07;;;7.05;;
10811;SDS011;5458;51.496;7.334;2023-04-06T06:50:55;9.05;;;7.10;;
10811;SDS011;5458;51.496;7.334;2023-04-06T06:53:21;8.60;;;7.57;;
10811;SDS011;5458;51.496;7.334;2023-04-06T06:55:48;7.22;;;6.43;;
10811;SDS011;5458;51.496;7.334;2023-04-06T06:58:14;6.95;;;6.25;;
10811;SDS011;5458;51.496;7.334;2023-04-06T07:00:40;7.03;;;6.35;;
10811;SDS011;5458;51.496;7.334;2023-04-06T07:03:06;8.70;;;7.13;;
10811;SDS011;5458;51.496;7.334;2023-04-06T07:05:31;7.10;;;6.45;;
10811;SDS011;5458;51.496;7.334;2023-04-06T07:07:57;7.45;;;6.75;;
10811;SDS011;5458;51.496;7.334;2023-04-06T07:10:23;8.27;;;6.28;;
10811;SDS011;5458;51.496;7.334;2023-04-06T07:12:49;7.47;;;6.18;;
10811;SDS011;5458;51.496;7.334;2023-04-06T07:15:14;7.32;;;6.63;;
10811;SDS011;5458;51.496;7.334;2023-04-06T07:17:41;7.55;;;6.85;;
10811;SDS011;5458;51.496;7.334;2023-04-06T07:20:06;8.63;;;6.93;;
10811;SDS011;5458;51.496;7.334;2023-04-06T07:22:32;7.85;;;7.00;;
10811;SDS011;5458;51.496;7.334;2023-04-06T07:24:58;7.75;;;6.28;;
10811;SDS011;5458;51.496;7.334;2023-04-06T07:27:23;7.30;;;5.90;;
10811;SDS011;5458;51.496;7.334;2023-04-06T07:29:49;7.20;;;6.50;;
10811;SDS011;5458;51.496;7.334;2023-04-06T07:32:15;6.72;;;6.13;;
10811;SDS011;5458;51.496;7.334;2023-04-06T07:34:40;7.40;;;6.32;;
10811;SDS011;5458;51.496;7.334;2023-04-06T07:37:06;7.28;;;6.57;;
10811;SDS011;5458;51.496;7.334;2023-04-06T07:39:32;6.95;;;6.35;;
10811;SDS011;5458;51.496;7.334;2023-04-06T07:41:57;8.77;;;7.03;;
10811;SDS011;5458;51.496;7.334;2023-04-06T07:44:23;7.20;;;6.60;;
10811;SDS011;5458;51.496;7.334;2023-04-06T07:46:49;7.10;;;6.50;;
10811;SDS011;5458;51.496;7.334;2023-04-06T07:49:14;8.05;;;6.82;;
10811;SDS011;5458;51.496;7.334;2023-04-06T07:51:40;7.18;;;6.47;;
10811;SDS011;5458;51.496;7.334;2023-04-06T07:54:05;9.10;;;7.25;;
10811;SDS011;5458;51.496;7.334;2023-04-06T07:56:31;9.38;;;6.90;;
10811;SDS011;5458;51.496;7.334;2023-04-06T07:58:57;7.65;;;6.95;;
10811;SDS011;5458;51.496;7.334;2023-04-06T08:01:23;8.10;;;6.63;;
10811;SDS011;5458;51.496;7.334;2023-04-06T08:03:49;7.45;;;6.68;;
10811;SDS011;5458;51.496;7.334;2023-04-06T08:06:15;7.90;;;7.10;;
10811;SDS011;5458;51.496;7.334;2023-04-06T08:08:41;8.23;;;7.38;;
10811;SDS011;5458;51.496;7.334;2023-04-06T08:11:07;8.40;;;7.32;;
10811;SDS011;5458;51.496;7.334;2023-04-06T08:13:34;10.18;;;7.65;;
10811;SDS011;5458;51.496;7.334;2023-04-06T08:16:00;7.85;;;6.90;;
10811;SDS011;5458;51.496;7.334;2023-04-06T08:18:26;8.90;;;8.00;;
10811;SDS011;5458;51.496;7.334;2023-04-06T08:20:52;7.40;;;6.70;;
10811;SDS011;5458;51.496;7.334;2023-04-06T08:23:17;8.02;;;7.32;;
10811;SDS011;5458;51.496;7.334;2023-04-06T08:25:43;8.95;;;7.30;;
10811;SDS011;5458;51.496;7.334;2023-04-06T08:28:09;7.53;;;6.72;;
10811;SDS011;5458;51.496;7.334;2023-04-06T08:30:35;7.47;;;6.78;;
10811;SDS011;5458;51.496;7.334;2023-04-06T08:33:01;8.00;;;7.30;;
10811;SDS011;5458;51.496;7.334;2023-04-06T08:35:27;7.97;;;7.18;;
10811;SDS011;5458;51.496;7.334;2023-04-06T08:37:52;11.30;;;7.90;;
10811;SDS011;5458;51.496;7.334;2023-04-06T08:40:18;8.52;;;7.70;;
10811;SDS011;5458;51.496;7.334;2023-04-06T08:42:44;7.90;;;7.20;;
10811;SDS011;5458;51.496;7.334;2023-04-06T08:45:15;7.55;;;6.85;;
10811;SDS011;5458;51.496;7.334;2023-04-06T08:47:42;8.02;;;7.15;;
10811;SDS011;5458;51.496;7.334;2023-04-06T08:50:09;8.88;;;7.90;;
10811;SDS011;5458;51.496;7.334;2023-04-06T08:52:36;10.98;;;6.82;;
10811;SDS011;5458;51.496;7.334;2023-04-06T08:55:03;8.25;;;7.35;;
10811;SDS011;5458;51.496;7.334;2023-04-06T08:57:29;9.10;;;8.07;;
10811;SDS011;5458;51.496;7.334;2023-04-06T08:59:56;8.90;;;7.40;;
10811;SDS011;5458;51.496;7.334;2023-04-06T09:02:21;8.43;;;7.60;;
10811;SDS011;5458;51.496;7.334;2023-04-06T09:04:47;8.68;;;7.78;;
10811;SDS011;5458;51.496;7.334;2023-04-06T09:07:15;11.50;;;8.00;;
10811;SDS011;5458;51.496;7.334;2023-04-06T09:09:40;11.85;;;7.97;;
10811;SDS011;5458;51.496;7.334;2023-04-06T09:12:21;8.32;;;7.50;;
10811;SDS011;5458;51.496;7.334;2023-04-06T09:14:49;9.50;;;8.15;;
10811;SDS011;5458;51.496;7.334;2023-04-06T09:17:27;10.60;;;9.35;;
10811;SDS011;5458;51.496;7.334;2023-04-06T09:19:55;10.88;;;8.40;;
10811;SDS011;5458;51.496;7.334;2023-04-06T09:22:22;9.35;;;8.40;;
10811;SDS011;5458;51.496;7.334;2023-04-06T09:24:50;11.85;;;8.55;;
10811;SDS011;5458;51.496;7.334;2023-04-06T09:27:17;10.00;;;8.57;;
10811;SDS011;5458;51.496;7.334;2023-04-06T09:30:02;13.02;;;9.05;;
10811;SDS011;5458;51.496;7.334;2023-04-06T09:32:32;11.88;;;9.35;;
10811;SDS011;5458;51.496;7.334;2023-04-06T09:35:09;11.82;;;9.43;;
10811;SDS011;5458;51.496;7.334;2023-04-06T09:37:35;12.38;;;9.75;;
10811;SDS011;5458;51.496;7.334;2023-04-06T09:40:04;12.15;;;10.23;;
10811;SDS011;5458;51.496;7.334;2023-04-06T09:42:31;12.10;;;9.60;;
10811;SDS011;5458;51.496;7.334;2023-04-06T09:44:57;12.93;;;9.48;;
10811;SDS011;5458;51.496;7.334;2023-04-06T09:47:22;13.00;;;10.38;;
10811;SDS011;5458;51.496;7.334;2023-04-06T09:49:49;11.20;;;9.23;;
10811;SDS011;5458;51.496;7.334;2023-04-06T09:52:19;11.50;;;10.15;;
10811;SDS011;5458;51.496;7.334;2023-04-06T09:54:46;11.93;;;9.82;;
10811;SDS011;5458;51.496;7.334;2023-04-06T09:57:25;12.63;;;10.45;;
10811;SDS011;5458;51.496;7.334;2023-04-06T10:00:05;14.20;;;11.32;;
10811;SDS011;5458;51.496;7.334;2023-04-06T10:05:31;13.18;;;10.52;;
10811;SDS011;5458;51.496;7.334;2023-04-06T10:08:05;13.95;;;11.20;;
10811;SDS011;5458;51.496;7.334;2023-04-06T10:10:32;16.55;;;11.68;;
10811;SDS011;5458;51.496;7.334;2023-04-06T10:12:58;15.07;;;11.93;;
10811;SDS011;5458;51.496;7.334;2023-04-06T10:15:24;14.15;;;11.82;;
10811;SDS011;5458;51.496;7.334;2023-04-06T10:17:51;13.45;;;11.70;;
10811;SDS011;5458;51.496;7.334;2023-04-06T10:23:24;14.75;;;11.75;;
10811;SDS011;5458;51.496;7.334;2023-04-06T10:25:58;16.17;;;12.45;;
10811;SDS011;5458;51.496;7.334;2023-04-06T10:28:25;13.23;;;10.65;;
10811;SDS011;5458;51.496;7.334;2023-04-06T10:30:58;15.45;;;12.50;;
10811;SDS011;5458;51.496;7.334;2023-04-06T10:33:25;13.55;;;11.75;;
10811;SDS011;5458;51.496;7.334;2023-04-06T10:35:51;15.27;;;11.88;;
10811;SDS011;5458;51.496;7.334;2023-04-06T10:38:18;14.93;;;12.25;;
10811;SDS011;5458;51.496;7.334;2023-04-06T10:40:46;12.57;;;11.10;;
10811;SDS011;5458;51.496;7.334;2023-04-06T10:43:22;17.73;;;12.75;;
10811;SDS011;5458;51.496;7.334;2023-04-06T10:45:57;15.23;;;11.73;;
10811;SDS011;5458;51.496;7.334;2023-04-06T10:48:35;14.93;;;12.75;;
10811;SDS011;5458;51.496;7.334;2023-04-06T10:51:06;15.85;;;12.60;;
10811;SDS011;5458;51.496;7.334;2023-04-06T10:53:34;15.55;;;13.13;;
10811;SDS011;5458;51.496;7.334;2023-04-06T10:55:59;15.40;;;11.63;;
10811;SDS011;5458;51.496;7.334;2023-04-06T10:58:26;17.42;;;14.13;;
10811;SDS011;5458;51.496;7.334;2023-04-06T11:00:52;17.08;;;14.13;;
10811;SDS011;5458;51.496;7.334;2023-04-06T11:03:19;15.10;;;12.18;;
10811;SDS011;5458;51.496;7.334;2023-04-06T11:05:45;14.45;;;12.55;;
10811;SDS011;5458;51.496;7.334;2023-04-06T11:08:36;12.85;;;11.48;;
10811;SDS011;5458;51.496;7.334;2023-04-06T11:11:09;15.18;;;11.98;;
10811;SDS011;5458;51.496;7.334;2023-04-06T11:16:14;12.90;;;10.68;;
10811;SDS011;5458;51.496;7.334;2023-04-06T11:21:18;13.43;;;10.63;;
10811;SDS011;5458;51.496;7.334;2023-04-06T11:23:44;13.23;;;11.85;;
10811;SDS011;5458;51.496;7.334;2023-04-06T11:26:13;13.57;;;12.15;;
10811;SDS011;5458;51.496;7.334;2023-04-06T11:28:42;14.52;;;12.35;;
10811;SDS011;5458;51.496;7.334;2023-04-06T11:31:11;14.85;;;13.30;;
10811;SDS011;5458;51.496;7.334;2023-04-06T11:33:37;16.83;;;14.55;;
10811;SDS011;5458;51.496;7.334;2023-04-06T11:36:03;15.88;;;13.02;;
10811;SDS011;5458;51.496;7.334;2023-04-06T11:38:30;19.92;;;13.02;;
10811;SDS011;5458;51.496;7.334;2023-04-06T11:40:56;19.75;;;15.15;;
10811;SDS011;5458;51.496;7.334;2023-04-06T11:43:30;18.58;;;15.02;;
10811;SDS011;5458;51.496;7.334;2023-04-06T11:45:59;19.15;;;16.88;;
10811;SDS011;5458;51.496;7.334;2023-04-06T11:48:29;19.55;;;14.70;;
10811;SDS011;5458;51.496;7.334;2023-04-06T11:50:58;19.85;;;15.88;;
10811;SDS011;5458;51.496;7.334;2023-04-06T11:53:28;18.60;;;15.05;;
10811;SDS011;5458;51.496;7.334;2023-04-06T11:55:54;19.00;;;16.05;;
10811;SDS011;5458;51.496;7.334;2023-04-06T11:58:21;19.25;;;16.35;;
10811;SDS011;5458;51.496;7.334;2023-04-06T12:00:46;18.83;;;15.43;;
10811;SDS011;5458;51.496;7.334;2023-04-06T12:03:12;21.25;;;15.52;;
10811;SDS011;5458;51.496;7.334;2023-04-06T12:05:38;16.17;;;13.50;;
10811;SDS011;5458;51.496;7.334;2023-04-06T12:08:04;18.13;;;14.50;;
10811;SDS011;5458;51.496;7.334;2023-04-06T12:10:29;17.10;;;15.15;;
10811;SDS011;5458;51.496;7.334;2023-04-06T12:12:55;19.13;;;15.68;;
10811;SDS011;5458;51.496;7.334;2023-04-06T12:15:21;19.00;;;13.85;;
10811;SDS011;5458;51.496;7.334;2023-04-06T12:17:46;18.25;;;13.80;;
10811;SDS011;5458;51.496;7.334;2023-04-06T12:20:12;17.70;;;13.32;;
10811;SDS011;5458;51.496;7.334;2023-04-06T12:22:38;16.70;;;13.60;;
10811;SDS011;5458;51.496;7.334;2023-04-06T12:25:04;16.50;;;12.85;;
10811;SDS011;5458;51.496;7.334;2023-04-06T12:27:31;15.48;;;11.90;;
10811;SDS011;5458;51.496;7.334;2023-04-06T12:29:57;13.55;;;11.02;;
10811;SDS011;5458;51.496;7.334;2023-04-06T12:32:23;13.40;;;11.18;;
10811;SDS011;5458;51.496;7.334;2023-04-06T12:34:50;14.95;;;12.00;;
10811;SDS011;5458;51.496;7.334;2023-04-06T12:37:17;15.18;;;11.85;;
10811;SDS011;5458;51.496;7.334;2023-04-06T12:39:43;16.05;;;13.18;;
10811;SDS011;5458;51.496;7.334;2023-04-06T12:42:09;14.60;;;11.65;;
10811;SDS011;5458;51.496;7.334;2023-04-06T12:44:35;14.88;;;11.27;;
10811;SDS011;5458;51.496;7.334;2023-04-06T12:47:01;14.85;;;11.65;;
10811;SDS011;5458;51.496;7.334;2023-04-06T12:49:27;15.10;;;12.20;;
10811;SDS011;5458;51.496;7.334;2023-04-06T12:51:53;13.98;;;10.98;;
10811;SDS011;5458;51.496;7.334;2023-04-06T12:54:18;14.45;;;10.77;;
10811;SDS011;5458;51.496;7.334;2023-04-06T12:56:44;14.18;;;11.15;;
10811;SDS011;5458;51.496;7.334;2023-04-06T12:59:11;12.95;;;11.25;;
10811;SDS011;5458;51.496;7.334;2023-04-06T13:01:36;15.25;;;12.00;;
10811;SDS011;5458;51.496;7.334;2023-04-06T13:04:02;14.38;;;11.85;;
10811;SDS011;5458;51.496;7.334;2023-04-06T13:06:28;13.82;;;11.38;;
10811;SDS011;5458;51.496;7.334;2023-04-06T13:08:54;13.48;;;10.65;;
10811;SDS011;5458;51.496;7.334;2023-04-06T13:11:20;14.57;;;11.93;;
10811;SDS011;5458;51.496;7.334;2023-04-06T13:13:48;14.65;;;11.52;;
10811;SDS011;5458;51.496;7.334;2023-04-06T13:16:14;15.48;;;11.90;;
10811;SDS011;5458;51.496;7.334;2023-04-06T13:18:40;15.27;;;12.50;;
10811;SDS011;5458;51.496;7.334;2023-04-06T13:21:06;13.95;;;10.95;;
10811;SDS011;5458;51.496;7.334;2023-04-06T13:23:32;17.70;;;12.82;;
10811;SDS011;5458;51.496;7.334;2023-04-06T13:26:00;13.95;;;10.85;;
10811;SDS011;5458;51.496;7.334;2023-04-06T13:28:29;14.18;;;10.95;;
10811;SDS011;5458;51.496;7.334;2023-04-06T13:30:57;15.32;;;12.50;;
10811;SDS011;5458;51.496;7.334;2023-04-06T13:33:25;17.33;;;11.35;;
10811;SDS011;5458;51.496;7.334;2023-04-06T13:35:51;12.57;;;11.18;;
10811;SDS011;5458;51.496;7.334;2023-04-06T13:38:17;15.98;;;11.10;;
10811;SDS011;5458;51.496;7.334;2023-04-06T13:40:43;14.50;;;11.10;;
10811;SDS011;5458;51.496;7.334;2023-04-06T13:43:09;14.48;;;11.07;;
10811;SDS011;5458;51.496;7.334;2023-04-06T13:45:36;15.82;;;11.52;;
10811;SDS011;5458;51.496;7.334;2023-04-06T13:48:02;13.40;;;10.38;;
10811;SDS011;5458;51.496;7.334;2023-04-06T13:50:28;12.93;;;10.15;;
10811;SDS011;5458;51.496;7.334;2023-04-06T13:52:54;12.00;;;9.55;;
10811;SDS011;5458;51.496;7.334;2023-04-06T13:55:21;13.63;;;11.05;;
10811;SDS011;5458;51.496;7.334;2023-04-06T13:57:49;14.13;;;10.48;;
10811;SDS011;5458;51.496;7.334;2023-04-06T14:00:15;13.20;;;10.35;;
10811;SDS011;5458;51.496;7.334;2023-04-06T14:02:41;11.52;;;9.40;;
10811;SDS011;5458;51.496;7.334;2023-04-06T14:05:07;14.50;;;10.27;;
10811;SDS011;5458;51.496;7.334;2023-04-06T14:07:33;13.50;;;11.10;;
10811;SDS011;5458;51.496;7.334;2023-04-06T14:09:58;12.90;;;10.60;;
10811;SDS011;5458;51.496;7.334;2023-04-06T14:12:25;15.15;;;11.48;;
10811;SDS011;5458;51.496;7.334;2023-04-06T14:14:51;13.90;;;11.75;;
10811;SDS011;5458;51.496;7.334;2023-04-06T14:17:17;15.77;;;12.05;;
10811;SDS011;5458;51.496;7.334;2023-04-06T14:19:43;12.00;;;10.73;;
10811;SDS011;5458;51.496;7.334;2023-04-06T14:22:09;13.70;;;10.68;;
10811;SDS011;5458;51.496;7.334;2023-04-06T14:24:35;13.77;;;10.35;;
10811;SDS011;5458;51.496;7.334;2023-04-06T14:27:01;13.50;;;10.40;;
10811;SDS011;5458;51.496;7.334;2023-04-06T14:29:27;13.35;;;10.70;;
10811;SDS011;5458;51.496;7.334;2023-04-06T14:31:53;14.18;;;11.52;;
10811;SDS011;5458;51.496;7.334;2023-04-06T14:34:24;12.68;;;10.15;;
10811;SDS011;5458;51.496;7.334;2023-04-06T14:36:51;13.85;;;9.15;;
10811;SDS011;5458;51.496;7.334;2023-04-06T14:39:17;12.40;;;8.95;;
10811;SDS011;5458;51.496;7.334;2023-04-06T14:41:42;10.27;;;8.55;;
10811;SDS011;5458;51.496;7.334;2023-04-06T14:44:08;9.82;;;8.82;;
10811;SDS011;5458;51.496;7.334;2023-04-06T14:46:37;12.60;;;8.82;;
10811;SDS011;5458;51.496;7.334;2023-04-06T14:49:02;12.23;;;9.07;;
10811;SDS011;5458;51.496;7.334;2023-04-06T14:51:29;15.73;;;10.48;;
10811;SDS011;5458;51.496;7.334;2023-04-06T14:54:04;11.00;;;9.88;;